createdAt,value
2023-05-14T00:00:19.513Z,100729.88
2023-05-14T00:05:22.334Z,100720.72
2023-05-14T00:10:25.223Z,100717.78
2023-05-14T00:15:29.481Z,100724.28
2023-05-14T00:20:32.222Z,100715.31
2023-05-14T00:25:35.015Z,100708.88
2023-05-14T00:30:39.729Z,100708.84
2023-05-14T00:35:42.518Z,100709.16
2023-05-14T00:40:49.942Z,100710.31
2023-05-14T00:45:55.288Z,100696.38
2023-05-14T00:50:58.158Z,100686.53
2023-05-14T00:56:03.783Z,100691.41
2023-05-14T01:01:08.065Z,100684.97
2023-05-14T01:06:18.141Z,100689.88
2023-05-14T01:11:25.665Z,100685.03
2023-05-14T01:16:31.987Z,100678.78
2023-05-14T01:21:38.572Z,100674.78
2023-05-14T01:26:41.589Z,100675.38
2023-05-14T01:31:46.549Z,100664.78
2023-05-14T01:36:52.363Z,100673.44
2023-05-14T01:41:56.438Z,100669.16
2023-05-14T01:46:59.228Z,100677.78
2023-05-14T01:52:03.415Z,100659.19
2023-05-14T01:57:06.551Z,100657.13
2023-05-14T02:02:09.326Z,100667.53
2023-05-14T02:07:13.664Z,100657.06
2023-05-14T02:12:16.431Z,100651.38
2023-05-14T02:17:19.372Z,100657.88
2023-05-14T02:22:23.462Z,100662.63
2023-05-14T02:27:26.245Z,100675.34
2023-05-14T02:32:29.227Z,100678.78
2023-05-14T02:37:34.707Z,100667.91
2023-05-14T02:42:37.535Z,100670.13
2023-05-14T02:47:40.518Z,100664.38
2023-05-14T02:52:44.685Z,100665.94
2023-05-14T02:57:47.647Z,100656.31
2023-05-14T03:02:50.548Z,100656.66
2023-05-14T03:07:55.416Z,100662.16
2023-05-14T03:12:58.214Z,100655.56
2023-05-14T03:18:01.027Z,100651.78
2023-05-14T03:23:05.261Z,100653.63
2023-05-14T03:28:08.083Z,100645.25
2023-05-14T03:33:10.937Z,100651.59
2023-05-14T03:38:15.060Z,100648.06
2023-05-14T03:43:17.848Z,100651.97
2023-05-14T03:48:21.317Z,100646.41
2023-05-14T03:53:25.575Z,100644.44
2023-05-14T03:58:28.362Z,100651.00
2023-05-14T04:03:31.238Z,100655.94
2023-05-14T04:08:35.651Z,100650.69
2023-05-14T04:13:38.628Z,100642.63
2023-05-14T04:18:41.675Z,100641.63
2023-05-14T04:23:45.915Z,100643.72
2023-05-14T04:28:48.682Z,100642.50
2023-05-14T04:33:51.441Z,100645.66
2023-05-14T04:38:55.968Z,100638.53
2023-05-14T04:44:01.314Z,100639.69
2023-05-14T04:49:04.163Z,100646.03
2023-05-14T04:54:08.375Z,100644.44
2023-05-14T04:59:11.227Z,100642.19
2023-05-14T05:04:15.250Z,100641.34
2023-05-14T05:09:19.831Z,100637.75
2023-05-14T05:14:22.572Z,100641.91
2023-05-14T05:19:35.685Z,100640.66
2023-05-14T05:24:44.178Z,100633.31
2023-05-14T05:29:46.981Z,100642.94
2023-05-14T05:34:49.764Z,100645.56
2023-05-14T05:39:53.995Z,100638.78
2023-05-14T05:44:56.854Z,100643.00
2023-05-14T05:49:59.614Z,100645.75
2023-05-14T05:55:03.720Z,100642.50
2023-05-14T06:00:13.235Z,100641.53
2023-05-14T06:05:16.064Z,100645.94
2023-05-14T06:10:20.621Z,100643.44
2023-05-14T06:15:24.137Z,100648.25
2023-05-14T06:20:26.998Z,100647.38
2023-05-14T06:25:31.173Z,100646.09
2023-05-14T06:30:34.284Z,100645.69
2023-05-14T06:35:37.088Z,100646.19
2023-05-14T06:40:41.224Z,100646.78
2023-05-14T06:45:43.970Z,100639.72
2023-05-14T06:50:47.221Z,100634.34
2023-05-14T06:55:51.400Z,100637.06
2023-05-14T07:00:54.193Z,100635.19
2023-05-14T07:05:56.981Z,100621.47
2023-05-14T07:11:01.142Z,100625.56
2023-05-14T07:16:03.922Z,100621.81
2023-05-14T07:21:07.194Z,100617.50
2023-05-14T07:26:11.387Z,100618.34
2023-05-14T07:31:14.199Z,100610.88
2023-05-14T07:36:17.114Z,100612.28
2023-05-14T07:41:21.514Z,100606.00
2023-05-14T07:46:25.788Z,100597.00
2023-05-14T07:51:29.198Z,100600.28
2023-05-14T07:56:33.391Z,100600.44
2023-05-14T08:01:39.073Z,100595.63
2023-05-14T08:06:42.227Z,100594.94
2023-05-14T08:11:46.402Z,100585.91
2023-05-14T08:16:50.020Z,100584.31
2023-05-14T08:21:52.833Z,100584.44
2023-05-14T08:26:57.006Z,100587.59
2023-05-14T08:32:05.808Z,100587.41
2023-05-14T08:37:14.809Z,100582.69
2023-05-14T08:42:22.794Z,100573.44
2023-05-14T08:47:26.436Z,100573.84
2023-05-14T08:52:29.548Z,100575.59
2023-05-14T08:57:34.835Z,100576.53
2023-05-14T09:02:38.116Z,100567.16
2023-05-14T09:07:40.912Z,100566.50
2023-05-14T09:12:45.115Z,100559.59
2023-05-14T09:17:49.234Z,100557.44
2023-05-14T09:22:54.247Z,100556.84
2023-05-14T09:27:58.881Z,100548.66
2023-05-14T09:33:03.958Z,100544.22
2023-05-14T09:38:06.748Z,100547.88
2023-05-14T09:43:11.386Z,100532.94
2023-05-14T09:48:14.261Z,100542.06
2023-05-14T09:53:17.761Z,100536.75
2023-05-14T09:58:22.026Z,100543.53
2023-05-14T10:03:27.844Z,100534.47
2023-05-14T10:08:34.969Z,100531.88
2023-05-14T10:13:42.726Z,100530.44
2023-05-14T10:18:52.400Z,100521.38
2023-05-14T10:23:55.350Z,100516.13
2023-05-14T10:29:00.180Z,100511.75
2023-05-14T10:34:03.168Z,100500.50
2023-05-14T10:39:06.130Z,100496.84
2023-05-14T10:44:11.358Z,100494.97
2023-05-14T10:49:14.188Z,100484.56
2023-05-14T10:54:17.774Z,100486.09
2023-05-14T10:59:29.188Z,100476.50
2023-05-14T11:04:32.754Z,100476.03
2023-05-14T11:09:36.099Z,100469.81
2023-05-14T11:14:40.277Z,100460.72
2023-05-14T11:19:44.723Z,100455.19
2023-05-14T11:24:47.583Z,100453.56
2023-05-14T11:29:52.039Z,100444.38
2023-05-14T11:34:54.836Z,100445.44
2023-05-14T11:40:02.934Z,100441.56
2023-05-14T11:45:08.596Z,100431.06
2023-05-14T11:50:11.949Z,100441.09
2023-05-14T11:55:14.845Z,100445.03
2023-05-14T12:00:22.066Z,100435.53
2023-05-14T12:05:25.078Z,100434.94
2023-05-14T12:10:27.818Z,100422.56
2023-05-14T12:15:32.375Z,100411.59
2023-05-14T12:20:35.107Z,100420.97
2023-05-14T12:25:39.334Z,100416.25
2023-05-14T12:30:43.490Z,100404.72
2023-05-14T12:35:46.935Z,100411.88
2023-05-14T12:40:49.656Z,100403.91
2023-05-14T12:45:53.827Z,100395.84
2023-05-14T12:50:56.623Z,100390.75
2023-05-14T12:55:59.450Z,100379.47
2023-05-14T13:01:03.837Z,100370.41
2023-05-14T13:06:06.869Z,100367.34
2023-05-14T13:11:09.611Z,100365.75
2023-05-14T13:16:16.783Z,100353.88
2023-05-14T13:21:19.683Z,100351.09
2023-05-14T13:26:22.659Z,100348.63
2023-05-14T13:31:26.772Z,100349.75
2023-05-14T13:36:30.983Z,100351.41
2023-05-14T13:41:35.486Z,100337.94
2023-05-14T13:46:39.672Z,100339.47
2023-05-14T13:51:42.524Z,100339.06
2023-05-14T13:56:45.316Z,100330.41
2023-05-14T14:01:50.082Z,100325.84
2023-05-14T14:06:52.963Z,100314.91
2023-05-14T14:11:55.845Z,100311.38
2023-05-14T14:17:00.106Z,100302.59
2023-05-14T14:22:03.065Z,100308.34
2023-05-14T14:27:06.583Z,100304.56
2023-05-14T14:32:10.752Z,100294.50
2023-05-14T14:37:13.514Z,100298.44
2023-05-14T14:42:16.347Z,100286.72
2023-05-14T14:47:20.493Z,100297.50
2023-05-14T14:52:23.635Z,100296.59
2023-05-14T14:57:26.718Z,100288.44
2023-05-14T15:02:31.062Z,100283.94
2023-05-14T15:07:34.133Z,100282.06
2023-05-14T15:12:37.110Z,100284.19
2023-05-14T15:17:41.289Z,100286.28
2023-05-14T15:22:44.124Z,100286.22
2023-05-14T15:27:46.969Z,100293.13
2023-05-14T15:32:51.226Z,100281.19
2023-05-14T15:37:57.189Z,100273.31
2023-05-14T15:42:59.973Z,100270.41
2023-05-14T15:48:04.312Z,100265.16
2023-05-14T15:53:07.179Z,100259.72
2023-05-14T15:58:10.018Z,100253.56
2023-05-14T16:03:14.226Z,100248.28
2023-05-14T16:08:17.056Z,100247.47
2023-05-14T16:13:20.363Z,100238.66
2023-05-14T16:18:25.181Z,100237.44
2023-05-14T16:23:28.200Z,100229.66
2023-05-14T16:28:30.953Z,100227.53
2023-05-14T16:33:35.039Z,100227.47
2023-05-14T16:38:44.563Z,100222.91
2023-05-14T16:43:55.324Z,100213.84
2023-05-14T16:48:59.494Z,100219.88
2023-05-14T16:54:02.217Z,100212.53
2023-05-14T16:59:04.976Z,100208.44
2023-05-14T17:04:10.146Z,100205.56
2023-05-14T17:09:12.937Z,100207.97
2023-05-14T17:14:15.887Z,100209.72
2023-05-14T17:19:20.016Z,100219.06
2023-05-14T17:24:22.827Z,100219.72
2023-05-14T17:29:26.257Z,100224.00
2023-05-14T17:34:30.483Z,100226.16
2023-05-14T17:39:33.274Z,100234.63
2023-05-14T17:44:36.297Z,100231.81
2023-05-14T17:49:40.477Z,100234.97
2023-05-14T17:54:43.286Z,100251.72
2023-05-14T17:59:46.122Z,100265.63
2023-05-14T18:04:50.375Z,100295.00
2023-05-14T18:09:53.140Z,100300.19
2023-05-14T18:14:55.941Z,100299.50
2023-05-14T18:20:00.201Z,100282.28
2023-05-14T18:25:03.093Z,100275.84
2023-05-14T18:30:07.334Z,100278.47
2023-05-14T18:35:12.120Z,100267.63
2023-05-14T18:40:17.729Z,100268.09
2023-05-14T18:45:22.368Z,100279.03
2023-05-14T18:50:26.646Z,100283.69
2023-05-14T18:55:29.566Z,100286.31
2023-05-14T19:00:32.331Z,100295.72
2023-05-14T19:05:36.662Z,100286.91
2023-05-14T19:10:39.453Z,100281.19
2023-05-14T19:15:42.479Z,100275.97
2023-05-14T19:20:47.168Z,100278.78
2023-05-14T19:25:49.949Z,100284.09
2023-05-14T19:30:53.439Z,100281.84
2023-05-14T19:35:58.392Z,100281.16
2023-05-14T19:41:01.138Z,100281.84
2023-05-14T19:46:04.476Z,100279.56
2023-05-14T19:51:10.891Z,100279.50
2023-05-14T19:56:13.663Z,100284.00
2023-05-14T20:01:16.498Z,100281.00
2023-05-14T20:06:20.903Z,100286.94
2023-05-14T20:11:23.694Z,100282.84
2023-05-14T20:16:26.582Z,100289.38
2023-05-14T20:21:31.571Z,100286.50
2023-05-14T20:26:34.464Z,100275.13
2023-05-14T20:31:37.274Z,100277.56
2023-05-14T20:36:41.760Z,100266.78
2023-05-14T20:41:45.548Z,100264.81
2023-05-14T20:46:48.667Z,100259.13
2023-05-14T20:51:52.841Z,100254.81
2023-05-14T20:56:55.681Z,100250.88
2023-05-14T21:01:58.498Z,100252.44
2023-05-14T21:07:03.840Z,100253.88
2023-05-14T21:12:07.430Z,100260.16
2023-05-14T21:17:10.306Z,100248.06
2023-05-14T21:22:14.821Z,100246.09
2023-05-14T21:27:17.857Z,100249.09
2023-05-14T21:32:22.121Z,100248.78
2023-05-14T21:37:26.539Z,100240.31
2023-05-14T21:42:29.275Z,100238.75
2023-05-14T21:47:32.495Z,100229.09
2023-05-14T21:52:37.841Z,100233.63
2023-05-14T21:57:41.287Z,100228.53
2023-05-14T22:02:44.020Z,100221.16
2023-05-14T22:07:48.144Z,100228.22
2023-05-14T22:12:50.844Z,100229.22
2023-05-14T22:17:53.562Z,100223.97
2023-05-14T22:22:57.595Z,100220.44
2023-05-14T22:28:00.317Z,100217.59
2023-05-14T22:33:03.068Z,100208.38
2023-05-14T22:38:07.277Z,100209.94
2023-05-14T22:43:09.963Z,100202.56
2023-05-14T22:48:12.624Z,100202.28
2023-05-14T22:53:16.655Z,100198.03
2023-05-14T22:58:19.403Z,100191.63
2023-05-14T23:03:22.052Z,100200.84
2023-05-14T23:08:26.117Z,100189.53
2023-05-14T23:13:28.898Z,100188.84
2023-05-14T23:18:31.687Z,100185.78
2023-05-14T23:23:35.960Z,100183.94
2023-05-14T23:28:38.662Z,100182.19
2023-05-14T23:33:41.431Z,100171.72
2023-05-14T23:38:45.767Z,100172.03
2023-05-14T23:43:48.828Z,100167.38
2023-05-14T23:48:52.121Z,100165.41
2023-05-14T23:53:58.452Z,100159.88
2023-05-14T23:59:01.574Z,100151.94
